Venango Regional Airport
KFKL : now visible

Airfield :











YOU CAN JOIN US ON...

 
LOGIN :

Register | Disclaimer

   EN    FR    IT 

 









Legend :    VFR   Marginal VFR   IFR   Intensive IFR   Very Intensive IFR
Visi :
Ceiling :
>= 8 km
>= 3000ft
5 to 8 km
1000 to 3000 ft
1500m to 5 km
500 to 1000 ft
800 to 1500m
200 to 500 ft
< 800m
< 200 ft
Symbols :   Thunderstorms  Fog  Heavy snow  Heavy precipitations  Wind > 20 kt






- Airport Elevation : 1540 ft


KFKL - Venango Regional

CURRENT METAR :
  • 160656Z AUTO 28007KT 10SM OVC009 03/01 A2980 RMK AO2 SLP102 T00280011

EXPIRED METARs :
  • 160647Z AUTO 30007KT 10SM OVC009 03/01 A2980 RMK AO2
  • 160616Z AUTO VRB06KT 10SM OVC011 02/01 A2981 RMK AO2 FZRANO
  • 160556Z AUTO 29008KT 10SM OVC009 02/01 A2981 RMK AO2 RAE17 CIG 008V013 SLP104 P0000 60004 T00220011 10033 20011 55000 FZRANO
  • 160456Z AUTO 28007KT 10SM -RA BKN007 BKN012 OVC040 02/01 A2981 RMK AO2 RAB0358E13B48 SLP105 P0000 T00220011 400830011 FZRANO
  • 160438Z AUTO VRB06KT 10SM BKN007 OVC010 02/01 A2980 RMK AO2 RAB0358E13 CIG 005V010 P0000 FZRANO

TAF KFKL
Valid from the 16 at 06:00 until the 17 at 06:00 UTC


160536Z 1606/1706 29007KT P6SM VCSH OVC007
FM161600 29010G17KT P6SM VCSH OVC007
FM170000 29006KT 4SM BR VCSH OVC007
KZOB FIR / North America



MET'MAP, your aeronautical weather chart ! - Copyright ORBIFLY December 2007 - Disclaimer

ORBIFLY MET'MAP TEAM :

Programming & Development : Alexandra Zaïnal
Concept & original design : Baudouin d'Aumeries
Assistance for programming : Marc-Olivier Méhu
Technical & hardware support : Manuel Goepfert

Contact : metmap@orbifly.com




SOURCES & CREDITS :

   NOAA       Earth
Advisory